Home > Products > Valid Products > MTR

000
SAUS44 KSHV 301758
MTRAQV
METAR KAQV 301756Z AUTO 18006KT 10SM FEW060 SCT075 32/17 A3003 RMK
AO2 SLP165 T03220167 10328 20189 58001





000
SAUS44 KSHV 301756
MTRBKB
METAR KBKB 301754Z AUTO 00000KT 10SM FEW060 SCT075 33/17 A3001 RMK
AO2 SLP188 T03330172 10333 20183 58003 $





000
SAUS44 KSHV 301658
MTRAQV
METAR KAQV 301656Z AUTO 00000KT 10SM FEW060 32/17 A3004 RMK AO2
SLP168 T03220167





000
SAUS44 KSHV 301658
MTRAQV
METAR KAQV 301656Z AUTO 00000KT 10SM FEW060 32/17 A3004 RMK AO2
SLP168 T03220167





000
SAUS44 KSHV 301655
MTRBKB
METAR KBKB 301654Z AUTO VRB04KT 10SM CLR 31/18 A3003 RMK AO2 SLP193
T03110178 $





000
SAUS44 KSHV 301557
MTRAQV
METAR KAQV 301556Z AUTO 00000KT 10SM CLR 31/17 A3005 RMK AO2 SLP170
T03060167





000
SAUS44 KSHV 301557
MTRAQV
METAR KAQV 301556Z AUTO 00000KT 10SM CLR 31/17 A3005 RMK AO2 SLP170
T03060167





000
SAUS44 KSHV 301555
MTRBKB
METAR KBKB 301554Z AUTO 00000KT 10SM CLR 30/18 A3004 RMK AO2 SLP197
T03000178 $





000
SAUS44 KSHV 301555
MTRBKB
METAR KBKB 301554Z AUTO 00000KT 10SM CLR 30/18 A3004 RMK AO2 SLP197
T03000178 $





000
SAUS44 KSHV 301457
MTRAQV
METAR KAQV 301456Z AUTO VRB04KT 10SM CLR 29/18 A3003 RMK AO2 SLP167
T02940178 51007





000
SAUS44 KSHV 301455
MTRBKB
METAR KBKB 301454Z AUTO VRB03KT 10SM CLR 29/19 A3002 RMK AO2 SLP191
T02890189 51008 $





000
SAUS44 KSHV 301455
MTRBKB
METAR KBKB 301454Z AUTO VRB03KT 10SM CLR 29/19 A3002 RMK AO2 SLP191
T02890189 51008 $





000
SAUS44 KSHV 301357
MTRAQV
METAR KAQV 301356Z AUTO VRB03KT 10SM CLR 27/19 A3003 RMK AO2 SLP164
T02670194





000
SAUS44 KSHV 301355
MTRBKB
METAR KBKB 301354Z AUTO 00000KT 10SM CLR 26/19 A3002 RMK AO2 SLP190
T02610194 $





000
SAUS44 KSHV 301257
MTRAQV
METAR KAQV 301256Z AUTO 00000KT 10SM CLR 23/19 A3002 RMK AO2 SLP163
T02280194





000
SAUS44 KSHV 301255
MTRBKB
METAR KBKB 301254Z AUTO 00000KT 10SM CLR 20/19 A3002 RMK AO2 SLP190
T02000189 $





000
SAUS44 KSHV 301255
MTRBKB
METAR KBKB 301254Z AUTO 00000KT 10SM CLR 20/19 A3002 RMK AO2 SLP190
T02000189 $





000
SAUS44 KSHV 301157
MTRAQV
METAR KAQV 301156Z AUTO 00000KT 5SM BR CLR 19/18 A3001 RMK AO2
SLP159 T01890183 10244 20189 51008





000
SAUS44 KSHV 301157
MTRAQV
METAR KAQV 301156Z AUTO 00000KT 5SM BR CLR 19/18 A3001 RMK AO2
SLP159 T01890183 10244 20189 51008





000
SAUS44 KSHV 301155
MTRBKB
METAR KBKB 301154Z AUTO 00000KT 10SM CLR 18/18 A3000 RMK AO2 SLP184
T01830178 10228 20183 51005 $





000
SAUS44 KSHV 301155
MTRBKB
METAR KBKB 301154Z AUTO 00000KT 10SM CLR 18/18 A3000 RMK AO2 SLP184
T01830178 10228 20183 51005 $





000
SAUS44 KSHV 301057
MTRAQV
METAR KAQV 301056Z AUTO 00000KT 5SM BR CLR 19/18 A3000 RMK AO2
SLP157 T01890183





000
SAUS44 KSHV 301055
MTRBKB
METAR KBKB 301054Z AUTO 00000KT 10SM CLR 19/18 A2999 RMK AO2 SLP181
T01890178 $





000
SAUS44 KSHV 301055
MTRBKB
METAR KBKB 301054Z AUTO 00000KT 10SM CLR 19/18 A2999 RMK AO2 SLP181
T01890178 $





000
SAUS44 KSHV 300957
MTRAQV
METAR KAQV 300956Z AUTO 00000KT 3SM BR CLR 20/18 A3000 RMK AO2
SLP155 T02000183





000
SAUS44 KSHV 300955
MTRBKB
METAR KBKB 300954Z AUTO 00000KT 10SM CLR 19/18 A2999 RMK AO2 SLP180
T01940178 $





000
SAUS44 KSHV 300955
MTRBKB
METAR KBKB 300954Z AUTO 00000KT 10SM CLR 19/18 A2999 RMK AO2 SLP180
T01940178 $





000
SAUS44 KSHV 300857
MTRAQV
METAR KAQV 300856Z AUTO 00000KT 10SM CLR 22/19 A2999 RMK AO2 SLP151
T02170189 55002





000
SAUS44 KSHV 300855
MTRBKB
METAR KBKB 300854Z AUTO 00000KT 10SM CLR 21/18 A2998 RMK AO2 SLP177
T02060183 55000 $





000
SAUS44 KSHV 300855
MTRBKB
METAR KBKB 300854Z AUTO 00000KT 10SM CLR 21/18 A2998 RMK AO2 SLP177
T02060183 55000 $





000
SAUS44 KSHV 300757
MTRAQV
METAR KAQV 300756Z AUTO 00000KT 10SM FEW070 22/18 A2998 RMK AO2
SLP150 T02220183





000
SAUS44 KSHV 300755
MTRBKB
METAR KBKB 300754Z AUTO 00000KT 10SM CLR 21/18 A2998 RMK AO2 SLP177
T02110183 $





000
SAUS44 KSHV 300755
MTRBKB
METAR KBKB 300754Z AUTO 00000KT 10SM CLR 21/18 A2998 RMK AO2 SLP177
T02110183 $





000
SAUS44 KSHV 300657
MTRAQV
METAR KAQV 300656Z AUTO VRB03KT 10SM CLR 24/18 A2999 RMK AO2 SLP152
T02390178





000
SAUS44 KSHV 300657
MTRAQV
METAR KAQV 300656Z AUTO VRB03KT 10SM CLR 24/18 A2999 RMK AO2 SLP152
T02390178





000
SAUS44 KSHV 300655
MTRBKB
METAR KBKB 300654Z AUTO 00000KT 10SM CLR 21/18 A2998 RMK AO2 SLP177
T02110178 $





000
SAUS44 KSHV 300655
MTRBKB
METAR KBKB 300654Z AUTO 00000KT 10SM CLR 21/18 A2998 RMK AO2 SLP177
T02110178 $





000
SAUS44 KSHV 300557
MTRAQV
METAR KAQV 300556Z AUTO 00000KT 10SM CLR 24/18 A2999 RMK AO2 SLP153
T02440183 10311 20233 403390172 58001





000
SAUS44 KSHV 300555
MTRBKB
METAR KBKB 300554Z AUTO 00000KT 10SM CLR 23/18 A2998 RMK AO2 SLP178
T02280183 10294 20222 403440172 58001 $





000
SAUS44 KSHV 300457
MTRAQV
METAR KAQV 300456Z AUTO 00000KT 10SM CLR 25/18 A3001 RMK AO2 SLP157
T02500183





000
SAUS44 KSHV 300455
MTRBKB
METAR KBKB 300454Z AUTO 00000KT 10SM CLR 23/18 A2999 RMK AO2 SLP182
T02330178 $





000
SAUS44 KSHV 300357
MTRAQV
METAR KAQV 300356Z AUTO 21003KT 10SM CLR 24/18 A3001 RMK AO2 SLP158
T02390183





000
SAUS44 KSHV 300355
MTRBKB
METAR KBKB 300354Z AUTO 00000KT 10SM CLR 22/18 A3000 RMK AO2 SLP183
T02220183 $





000
SAUS44 KSHV 300355
MTRBKB
METAR KBKB 300354Z AUTO 00000KT 10SM CLR 22/18 A3000 RMK AO2 SLP183
T02220183 $





000
SAUS44 KSHV 300257
MTRAQV
METAR KAQV 300256Z AUTO 00000KT 10SM CLR 23/18 A3000 RMK AO2 SLP155
T02330183 53014





000
SAUS44 KSHV 300255
MTRBKB
METAR KBKB 300254Z AUTO 00000KT 10SM CLR 23/18 A2998 RMK AO2 SLP178
T02330178 53012 $





000
SAUS44 KSHV 300255
MTRBKB
METAR KBKB 300254Z AUTO 00000KT 10SM CLR 23/18 A2998 RMK AO2 SLP178
T02330178 53012 $





000
SAUS44 KSHV 300157
MTRAQV
METAR KAQV 300156Z AUTO 00000KT 9SM CLR 24/18 A2997 RMK AO2 SLP146
T02390178





000
SAUS44 KSHV 300157
MTRAQV
METAR KAQV 300156Z AUTO 00000KT 9SM CLR 24/18 A2997 RMK AO2 SLP146
T02390178





000
SAUS44 KSHV 300155
MTRBKB
METAR KBKB 300154Z AUTO 00000KT 10SM CLR 24/18 A2996 RMK AO2 SLP172
T02440183 $





000
SAUS44 KSHV 300155
MTRBKB
METAR KBKB 300154Z AUTO 00000KT 10SM CLR 24/18 A2996 RMK AO2 SLP172
T02440183 $





000
SAUS44 KSHV 300057
MTRAQV
METAR KAQV 300056Z AUTO 00000KT 10SM FEW075 27/18 A2996 RMK AO2
SLP143 T02670183





000
SAUS44 KSHV 300057
MTRAQV
METAR KAQV 300056Z AUTO 00000KT 10SM FEW075 27/18 A2996 RMK AO2
SLP143 T02670183





000
SAUS44 KSHV 300055
MTRBKB
METAR KBKB 300054Z AUTO 00000KT 10SM CLR 26/18 A2995 RMK AO2 SLP169
T02610183 $





000
SAUS44 KSHV 292357
MTRAQV
METAR KAQV 292356Z AUTO 00000KT 10SM BKN075 32/15 A2996 RMK AO2
SLP141 T03170150 10339 20306 55009





000
SAUS44 KSHV 292357
MTRAQV
METAR KAQV 292356Z AUTO 00000KT 10SM BKN075 32/15 A2996 RMK AO2
SLP141 T03170150 10339 20306 55009





000
SAUS44 KSHV 292355
MTRBKB
METAR KBKB 292354Z AUTO 00000KT 10SM FEW070 29/18 A2995 RMK AO2
SLP167 T02940178 10344 20294 55007 $





000
SAUS44 KSHV 292355
MTRBKB
METAR KBKB 292354Z AUTO 00000KT 10SM FEW070 29/18 A2995 RMK AO2
SLP167 T02940178 10344 20294 55007 $





000
SAUS44 KSHV 292257
MTRAQV
METAR KAQV 292256Z AUTO 19004KT 10SM BKN075 33/15 A2995 RMK AO2
SLP139 T03330150





000
SAUS44 KSHV 292257
MTRAQV
METAR KAQV 292256Z AUTO 19004KT 10SM BKN075 33/15 A2995 RMK AO2
SLP139 T03330150





000
SAUS44 KSHV 292255
MTRBKB
METAR KBKB 292254Z AUTO VRB03KT 10SM FEW075 32/17 A2994 RMK AO2
SLP164 T03220167 $





000
SAUS44 KSHV 292255
MTRBKB
METAR KBKB 292254Z AUTO VRB03KT 10SM FEW075 32/17 A2994 RMK AO2
SLP164 T03220167 $





000
SAUS44 KSHV 292157
MTRAQV
METAR KAQV 292156Z AUTO 12003KT 10SM BKN070 32/15 A2996 RMK AO2
SLP143 T03220150





000
SAUS44 KSHV 292155
MTRBKB
METAR KBKB 292154Z AUTO VRB04KT 10SM SCT080 33/16 A2995 RMK AO2
SLP166 T03280161 $





000
SAUS44 KSHV 292155
MTRBKB
METAR KBKB 292154Z AUTO VRB04KT 10SM SCT080 33/16 A2995 RMK AO2
SLP166 T03280161 $





000
SAUS44 KSHV 292057
MTRAQV
METAR KAQV 292056Z AUTO 25004KT 10SM BKN075 32/16 A2998 RMK AO2
SLP150 T03170156 57021





000
SAUS44 KSHV 292055
MTRBKB
METAR KBKB 292054Z AUTO 00000KT 10SM BKN070 32/16 A2997 RMK AO2
SLP173 T03170156 56020 $





000
SAUS44 KSHV 291958
MTRAQV
METAR KAQV 291956Z AUTO VRB04KT 10SM OVC070 33/16 A3000 RMK AO2
SLP156 T03280156





000
SAUS44 KSHV 291955
MTRBKB
METAR KBKB 291954Z AUTO VRB03KT 10SM CLR 34/16 A2998 RMK AO2 SLP177
T03440156 $





000
SAUS44 KSHV 291858
MTRAQV
METAR KAQV 291856Z AUTO 29003KT 10SM FEW060 31/16 A3003 RMK AO2
SLP165 T03110156





000
SAUS44 KSHV 291858
MTRAQV
METAR KAQV 291856Z AUTO 29003KT 10SM FEW060 31/16 A3003 RMK AO2
SLP165 T03110156





000
SAUS44 KSHV 291855
MTRBKB
METAR KBKB 291854Z AUTO VRB03KT 10SM FEW070 32/16 A3001 RMK AO2
SLP188 T03220161 $





000
SAUS44 KSHV 291758
MTRAQV
METAR KAQV 291756Z AUTO VRB03KT 10SM SCT060 31/17 A3005 RMK AO2
SLP171 T03060172 10322 20178 58004





000
SAUS44 KSHV 291758
MTRAQV
METAR KAQV 291756Z AUTO VRB03KT 10SM SCT060 31/17 A3005 RMK AO2
SLP171 T03060172 10322 20178 58004





000
SAUS44 KSHV 291755
MTRBKB
METAR KBKB 291754Z AUTO 00000KT 10SM CLR 32/15 A3003 RMK AO2 SLP194
T03220150 10322 20172 58006 $





000
SAUS44 KSHV 291755
MTRBKB
METAR KBKB 291754Z AUTO 00000KT 10SM CLR 32/15 A3003 RMK AO2 SLP194
T03220150 10322 20172 58006 $





000
SAUS44 KSHV 291658 COR
MTRBKB
METAR KBKB 291654Z AUTO VRB03KT 10SM SCT055 32/17 A3005 RMK AO2
SLP201 T03170172 $





000
SAUS44 KSHV 291657
MTRAQV
METAR KAQV 291656Z AUTO VRB03KT 10SM BKN055 30/17 A3007 RMK AO2
SLP177 T03000167





000
SAUS44 KSHV 291657
MTRAQV
METAR KAQV 291656Z AUTO VRB03KT 10SM BKN055 30/17 A3007 RMK AO2
SLP177 T03000167





000
SAUS44 KSHV 291655
MTRBKB
METAR KBKB 291654Z AUTO VRB03KT 10SM SCT055 32/17 A3005 RMK AO2
SLP201 T03170172 $





000
SAUS44 KSHV 291557
MTRAQV
METAR KAQV 291556Z AUTO VRB04KT 10SM CLR 30/17 A3007 RMK AO2 SLP178
T03000167





000
SAUS44 KSHV 291555
MTRBKB
METAR KBKB 291554Z AUTO 00000KT 10SM CLR 30/18 A3005 RMK AO2 SLP200
T03000178 $





000
SAUS44 KSHV 291457
MTRAQV
METAR KAQV 291456Z AUTO VRB03KT 10SM CLR 29/19 A3006 RMK AO2 SLP175
T02890194 51009





000
SAUS44 KSHV 291455
MTRBKB
METAR KBKB 291454Z AUTO VRB04KT 10SM CLR 29/19 A3005 RMK AO2 SLP200
T02890194 51010 $





000
SAUS44 KSHV 291455
MTRBKB
METAR KBKB 291454Z AUTO VRB04KT 10SM CLR 29/19 A3005 RMK AO2 SLP200
T02890194 51010 $





000
SAUS44 KSHV 291357
MTRAQV
METAR KAQV 291356Z AUTO 00000KT 10SM CLR 26/20 A3005 RMK AO2 SLP174
T02560200





000
SAUS44 KSHV 291357
MTRAQV
METAR KAQV 291356Z AUTO 00000KT 10SM CLR 26/20 A3005 RMK AO2 SLP174
T02560200





000
SAUS44 KSHV 291355
MTRBKB
METAR KBKB 291354Z AUTO 00000KT 10SM CLR 27/20 A3004 RMK AO2 SLP198
T02670200 $





000
SAUS44 KSHV 291355
MTRBKB
METAR KBKB 291354Z AUTO 00000KT 10SM CLR 27/20 A3004 RMK AO2 SLP198
T02670200 $





000
SAUS44 KSHV 291257
MTRAQV
METAR KAQV 291256Z AUTO 00000KT 10SM CLR 21/19 A3005 RMK AO2 SLP172
T02060189





000
SAUS44 KSHV 291257
MTRAQV
METAR KAQV 291256Z AUTO 00000KT 10SM CLR 21/19 A3005 RMK AO2 SLP172
T02060189





000
SAUS44 KSHV 291255
MTRBKB
METAR KBKB 291254Z AUTO 00000KT 10SM CLR 19/18 A3004 RMK AO2 SLP197
T01940183 $





000
SAUS44 KSHV 291255
MTRBKB
METAR KBKB 291254Z AUTO 00000KT 10SM CLR 19/18 A3004 RMK AO2 SLP197
T01940183 $





000
SAUS44 KSHV 291157
MTRAQV
METAR KAQV 291156Z AUTO 00000KT 5SM BR CLR 18/17 A3003 RMK AO2
SLP167 T01780172 10211 20172 53009





000
SAUS44 KSHV 291157
MTRAQV
METAR KAQV 291156Z AUTO 00000KT 5SM BR CLR 18/17 A3003 RMK AO2
SLP167 T01780172 10211 20172 53009





000
SAUS44 KSHV 291155
MTRBKB
METAR KBKB 291154Z AUTO 00000KT 10SM CLR 17/16 A3002 RMK AO2 SLP190
T01720161 10189 20172 53008 $





000
SAUS44 KSHV 291155
MTRBKB
METAR KBKB 291154Z AUTO 00000KT 10SM CLR 17/16 A3002 RMK AO2 SLP190
T01720161 10189 20172 53008 $





000
SAUS44 KSHV 291057
MTRAQV
METAR KAQV 291056Z AUTO 00000KT 10SM CLR 18/17 A3001 RMK AO2 SLP159
T01830172





000
SAUS44 KSHV 291055
MTRBKB
METAR KBKB 291054Z AUTO 00000KT 10SM CLR 18/17 A3000 RMK AO2 SLP183
T01780167 $





000
SAUS44 KSHV 290957
MTRAQV
METAR KAQV 290956Z AUTO 00000KT 10SM CLR 19/18 A3000 RMK AO2 SLP154
T01890178





000
SAUS44 KSHV 290955
MTRBKB
METAR KBKB 290954Z AUTO 00000KT 10SM CLR 18/16 A2999 RMK AO2 SLP179
T01780161 $





000
SAUS44 KSHV 290857
MTRAQV
METAR KAQV 290856Z AUTO 00000KT 10SM CLR 21/18 A3001 RMK AO2 SLP157
T02060178 56003





000
SAUS44 KSHV 290857
MTRAQV
METAR KAQV 290856Z AUTO 00000KT 10SM CLR 21/18 A3001 RMK AO2 SLP157
T02060178 56003





000
SAUS44 KSHV 290855
MTRBKB
METAR KBKB 290854Z AUTO 00000KT 10SM CLR 19/17 A2999 RMK AO2 SLP182
T01890167 58002 $





000
SAUS44 KSHV 290855
MTRBKB
METAR KBKB 290854Z AUTO 00000KT 10SM CLR 19/17 A2999 RMK AO2 SLP182
T01890167 58002 $





000
SAUS44 KSHV 290757
MTRAQV
METAR KAQV 290756Z AUTO 00000KT 10SM CLR 19/16 A3001 RMK AO2 SLP157
T01940161





000
SAUS44 KSHV 290757
MTRAQV
METAR KAQV 290756Z AUTO 00000KT 10SM CLR 19/16 A3001 RMK AO2 SLP157
T01940161





000
SAUS44 KSHV 290755
MTRBKB
METAR KBKB 290754Z AUTO 00000KT 10SM CLR 18/16 A2999 RMK AO2 SLP182
T01780161 $





000
SAUS44 KSHV 290657
MTRAQV
METAR KAQV 290656Z AUTO 00000KT 10SM CLR 19/16 A3001 RMK AO2 SLP158
T01890161





000
SAUS44 KSHV 290657
MTRAQV
METAR KAQV 290656Z AUTO 00000KT 10SM CLR 19/16 A3001 RMK AO2 SLP158
T01890161





000
SAUS44 KSHV 290655
MTRBKB
METAR KBKB 290654Z AUTO 00000KT 10SM CLR 18/16 A3000 RMK AO2 SLP184
T01780161 $





000
SAUS44 KSHV 290655
MTRBKB
METAR KBKB 290654Z AUTO 00000KT 10SM CLR 18/16 A3000 RMK AO2 SLP184
T01780161 $





000
SAUS44 KSHV 290557
MTRAQV
METAR KAQV 290556Z AUTO 00000KT 10SM CLR 19/17 A3001 RMK AO2 SLP160
T01940167 10300 20189 403390150 51006





000
SAUS44 KSHV 290556
MTRBKB
METAR KBKB 290554Z AUTO 00000KT 10SM CLR 18/16 A3000 RMK AO2 SLP184
T01830161 10306 20183 403440144 51004 $





000
SAUS44 KSHV 290457
MTRAQV
METAR KAQV 290456Z AUTO 00000KT 10SM CLR 19/16 A3001 RMK AO2 SLP160
T01940161





000
SAUS44 KSHV 290457
MTRAQV
METAR KAQV 290456Z AUTO 00000KT 10SM CLR 19/16 A3001 RMK AO2 SLP160
T01940161





000
SAUS44 KSHV 290455
MTRBKB
METAR KBKB 290454Z AUTO 00000KT 10SM CLR 19/16 A3000 RMK AO2 SLP184
T01940156 $





000
SAUS44 KSHV 290455
MTRBKB
METAR KBKB 290454Z AUTO 00000KT 10SM CLR 19/16 A3000 RMK AO2 SLP184
T01940156 $





000
SAUS44 KSHV 290357
MTRAQV
METAR KAQV 290356Z AUTO 00000KT 10SM CLR 20/16 A3002 RMK AO2 SLP161
T02000161





000
SAUS44 KSHV 290355
MTRBKB
METAR KBKB 290354Z AUTO 00000KT 10SM CLR 21/16 A3001 RMK AO2 SLP187
T02060156 $





000
SAUS44 KSHV 290257
MTRAQV
METAR KAQV 290256Z AUTO 00000KT 10SM CLR 21/16 A3000 RMK AO2 SLP155
T02110161 53019





000
SAUS44 KSHV 290257
MTRAQV
METAR KAQV 290256Z AUTO 00000KT 10SM CLR 21/16 A3000 RMK AO2 SLP155
T02110161 53019





000
SAUS44 KSHV 290255
MTRBKB
METAR KBKB 290254Z AUTO 00000KT 10SM CLR 23/16 A2999 RMK AO2 SLP179
T02280156 53020 $





000
SAUS44 KSHV 290255
MTRBKB
METAR KBKB 290254Z AUTO 00000KT 10SM CLR 23/16 A2999 RMK AO2 SLP179
T02280156 53020 $





000
SAUS44 KSHV 290157
MTRAQV
METAR KAQV 290156Z AUTO 00000KT 9SM CLR 22/16 A2997 RMK AO2 SLP147
T02220161





000
SAUS44 KSHV 290155
MTRBKB
METAR KBKB 290154Z AUTO 00000KT 10SM CLR 24/16 A2996 RMK AO2 SLP172
T02440156 $





000
SAUS44 KSHV 290155
MTRBKB
METAR KBKB 290154Z AUTO 00000KT 10SM CLR 24/16 A2996 RMK AO2 SLP172
T02440156 $





000
SAUS44 KSHV 290057
MTRAQV
METAR KAQV 290056Z AUTO 00000KT 10SM CLR 25/15 A2995 RMK AO2 SLP141
T02500150





000
SAUS44 KSHV 290057
MTRAQV
METAR KAQV 290056Z AUTO 00000KT 10SM CLR 25/15 A2995 RMK AO2 SLP141
T02500150





000
SAUS44 KSHV 290055
MTRBKB
METAR KBKB 290054Z AUTO 00000KT 10SM CLR 27/15 A2994 RMK AO2 SLP164
T02670150 $





000
SAUS44 KSHV 290055
MTRBKB
METAR KBKB 290054Z AUTO 00000KT 10SM CLR 27/15 A2994 RMK AO2 SLP164
T02670150 $





000
SAUS44 KSHV 282357
MTRAQV
METAR KAQV 282356Z AUTO 02003KT 10SM CLR 30/13 A2994 RMK AO2 SLP136
T03000133 10339 20300 56003





000
SAUS44 KSHV 282357
MTRAQV
METAR KAQV 282356Z AUTO 02003KT 10SM CLR 30/13 A2994 RMK AO2 SLP136
T03000133 10339 20300 56003





000
SAUS44 KSHV 282355
MTRBKB
METAR KBKB 282354Z AUTO 00000KT 10SM CLR 31/14 A2993 RMK AO2 SLP160
T03060144 10344 20306 55001 $





000
SAUS44 KSHV 282355
MTRBKB
METAR KBKB 282354Z AUTO 00000KT 10SM CLR 31/14 A2993 RMK AO2 SLP160
T03060144 10344 20306 55001 $





000
SAUS44 KSHV 282258
MTRAQV
METAR KAQV 282256Z AUTO 00000KT 10SM CLR 33/10 A2994 RMK AO2 SLP137
T03330100





000
SAUS44 KSHV 282255
MTRBKB
METAR KBKB 282254Z AUTO 00000KT 10SM CLR 33/13 A2992 RMK AO2 SLP158
T03330133 $





000
SAUS44 KSHV 282157
MTRAQV
METAR KAQV 282156Z AUTO 02005KT 10SM CLR 34/11 A2995 RMK AO2 SLP137
T03390111





000
SAUS44 KSHV 282157
MTRAQV
METAR KAQV 282156Z AUTO 02005KT 10SM CLR 34/11 A2995 RMK AO2 SLP137
T03390111





000
SAUS44 KSHV 282155
MTRBKB
METAR KBKB 282154Z AUTO 00000KT 10SM CLR 33/12 A2992 RMK AO2 SLP158
T03330122 $





000
SAUS44 KSHV 282057
MTRAQV
METAR KAQV 282056Z AUTO 35005KT 10SM CLR 33/12 A2995 RMK AO2 SLP139
T03330117 58020





000
SAUS44 KSHV 282055
MTRBKB
METAR KBKB 282054Z AUTO VRB04KT 10SM CLR 34/13 A2993 RMK AO2 SLP160
T03390128 57020 $





000
SAUS44 KSHV 282055
MTRBKB
METAR KBKB 282054Z AUTO VRB04KT 10SM CLR 34/13 A2993 RMK AO2 SLP160
T03390128 57020 $





000
SAUS44 KSHV 281957
MTRAQV
METAR KAQV 281956Z AUTO 00000KT 10SM CLR 33/13 A2997 RMK AO2 SLP145
T03330128





000
SAUS44 KSHV 281955
MTRBKB
METAR KBKB 281954Z AUTO 02004KT 10SM CLR 33/12 A2995 RMK AO2 SLP166
T03330122 $





000
SAUS44 KSHV 281857
MTRAQV
METAR KAQV 281856Z AUTO 00000KT 10SM CLR 32/12 A2999 RMK AO2 SLP153
T03170122





000
SAUS44 KSHV 281855
MTRBKB
METAR KBKB 281854Z AUTO 02005KT 10SM CLR 33/14 A2997 RMK AO2 SLP174
T03280139 $





000
SAUS44 KSHV 281855
MTRBKB
METAR KBKB 281854Z AUTO 02005KT 10SM CLR 33/14 A2997 RMK AO2 SLP174
T03280139 $





000
SAUS44 KSHV 281757
MTRAQV
METAR KAQV 281756Z AUTO VRB03KT 10SM CLR 32/13 A3001 RMK AO2 SLP158
T03170133 10322 20150 58008





000
SAUS44 KSHV 281757
MTRAQV
METAR KAQV 281756Z AUTO VRB03KT 10SM CLR 32/13 A3001 RMK AO2 SLP158
T03170133 10322 20150 58008





000
SAUS44 KSHV 281755
MTRBKB
METAR KBKB 281754Z AUTO 22006KT 10SM CLR 31/14 A2999 RMK AO2 SLP181
T03110144 10322 20144 58011 $





000
SAUS44 KSHV 281755
MTRBKB
METAR KBKB 281754Z AUTO 22006KT 10SM CLR 31/14 A2999 RMK AO2 SLP181
T03110144 10322 20144 58011 $





000
SAUS44 KSHV 281657
MTRAQV
METAR KAQV 281656Z AUTO VRB03KT 10SM CLR 30/14 A3003 RMK AO2 SLP166
T03000144





000
SAUS44 KSHV 281656
MTRBKB
METAR KBKB 281654Z AUTO VRB03KT 10SM CLR 32/14 A3002 RMK AO2 SLP189
T03170144 $





000
SAUS44 KSHV 281600
MTRAQV
METAR KAQV 281556Z AUTO 00000KT 10SM CLR 29/16 A3004 RMK AO2 SLP170
T02890156





000
SAUS44 KSHV 281558
MTRBKB
METAR KBKB 281554Z AUTO 00000KT 10SM CLR 28/16 A3003 RMK AO2 SLP194
T02830156 $





000
SAUS44 KSHV 281457
MTRAQV
METAR KAQV 281456Z AUTO VRB03KT 10SM CLR 26/16 A3003 RMK AO2 SLP168
T02610161 51007





000
SAUS44 KSHV 281457
MTRAQV
METAR KAQV 281456Z AUTO VRB03KT 10SM CLR 26/16 A3003 RMK AO2 SLP168
T02610161 51007





000
SAUS44 KSHV 281455
MTRBKB
METAR KBKB 281454Z AUTO 00000KT 10SM CLR 27/17 A3002 RMK AO2 SLP192
T02670167 51009 $





000
SAUS44 KSHV 281455
MTRBKB
METAR KBKB 281454Z AUTO 00000KT 10SM CLR 27/17 A3002 RMK AO2 SLP192
T02670167 51009 $





000
SAUS44 KSHV 281357
MTRAQV
METAR KAQV 281356Z AUTO VRB03KT 10SM CLR 23/16 A3003 RMK AO2 SLP166
T02280161





000
SAUS44 KSHV 281355
MTRBKB
METAR KBKB 281354Z AUTO VRB03KT 10SM CLR 23/16 A3002 RMK AO2 SLP191
T02280161 $





000
SAUS44 KSHV 281257
MTRAQV
METAR KAQV 281256Z AUTO 00000KT 10SM CLR 18/16 A3003 RMK AO2 SLP165
T01780161





000
SAUS44 KSHV 281257
MTRAQV
METAR KAQV 281256Z AUTO 00000KT 10SM CLR 18/16 A3003 RMK AO2 SLP165
T01780161





000
SAUS44 KSHV 281255
MTRBKB
METAR KBKB 281254Z AUTO 00000KT 10SM CLR 17/16 A3001 RMK AO2 SLP189
T01720161 $





000
SAUS44 KSHV 281157
MTRAQV
METAR KAQV 281156Z AUTO 00000KT 8SM CLR 15/14 A3001 RMK AO2 SLP160
T01500144 10178 20150 53008





000
SAUS44 KSHV 281157
MTRAQV
METAR KAQV 281156Z AUTO 00000KT 8SM CLR 15/14 A3001 RMK AO2 SLP160
T01500144 10178 20150 53008





000
SAUS44 KSHV 281155
MTRBKB
METAR KBKB 281154Z AUTO 00000KT 10SM CLR 15/14 A2999 RMK AO2 SLP183
T01500139 10178 20144 53008 $





000
SAUS44 KSHV 281155
MTRBKB
METAR KBKB 281154Z AUTO 00000KT 10SM CLR 15/14 A2999 RMK AO2 SLP183
T01500139 10178 20144 53008 $





000
SAUS44 KSHV 281057
MTRAQV
METAR KAQV 281056Z AUTO 00000KT 9SM CLR 15/14 A3000 RMK AO2 SLP155
T01500144





000
SAUS44 KSHV 281055
MTRBKB
METAR KBKB 281054Z AUTO 00000KT 10SM CLR 14/14 A2998 RMK AO2 SLP178
T01440139 $





000
SAUS44 KSHV 281055
MTRBKB
METAR KBKB 281054Z AUTO 00000KT 10SM CLR 14/14 A2998 RMK AO2 SLP178
T01440139 $





000
SAUS44 KSHV 280957
MTRAQV
METAR KAQV 280956Z AUTO 00000KT 10SM CLR 16/15 A2999 RMK AO2 SLP152
T01560150





000
SAUS44 KSHV 280955
MTRBKB
METAR KBKB 280954Z AUTO 00000KT 10SM CLR 16/14 A2997 RMK AO2 SLP175
T01560139 $





000
SAUS44 KSHV 280955
MTRBKB
METAR KBKB 280954Z AUTO 00000KT 10SM CLR 16/14 A2997 RMK AO2 SLP175
T01560139 $





000
SAUS44 KSHV 280857
MTRAQV
METAR KAQV 280856Z AUTO 00000KT 10SM CLR 16/15 A2999 RMK AO2 SLP152
T01560150 56009





000
SAUS44 KSHV 280855
MTRBKB
METAR KBKB 280854Z AUTO 00000KT 10SM CLR 16/14 A2997 RMK AO2 SLP175
T01560139 58008 $





000
SAUS44 KSHV 280757
MTRAQV
METAR KAQV 280756Z AUTO 00000KT 10SM CLR 16/16 A2999 RMK AO2 SLP153
T01610156





000
SAUS44 KSHV 280755
MTRBKB
METAR KBKB 280754Z AUTO 00000KT 10SM CLR 16/14 A2998 RMK AO2 SLP178
T01610144 $





000
SAUS44 KSHV 280657
MTRAQV
METAR KAQV 280656Z AUTO 00000KT 10SM CLR 17/16 A3001 RMK AO2 SLP159
T01720156





000
SAUS44 KSHV 280657
MTRAQV
METAR KAQV 280656Z AUTO 00000KT 10SM CLR 17/16 A3001 RMK AO2 SLP159
T01720156





000
SAUS44 KSHV 280655
MTRBKB
METAR KBKB 280654Z AUTO 00000KT 10SM CLR 17/14 A2999 RMK AO2 SLP182
T01670144 $





000
SAUS44 KSHV 280655
MTRBKB
METAR KBKB 280654Z AUTO 00000KT 10SM CLR 17/14 A2999 RMK AO2 SLP182
T01670144 $





000
SAUS44 KSHV 280557
MTRAQV
METAR KAQV 280556Z AUTO 00000KT 10SM CLR 18/16 A3001 RMK AO2 SLP161
T01780161 10294 20178 403330156 53002





000
SAUS44 KSHV 280555
MTRBKB
METAR KBKB 280554Z AUTO 00000KT 10SM CLR 18/14 A3000 RMK AO2 SLP183
T01780144 10294 20178 403330156 52002





000
SAUS44 KSHV 280555
MTRBKB
METAR KBKB 280554Z AUTO 00000KT 10SM CLR 18/14 A3000 RMK AO2 SLP183
T01780144 10294 20178 403330156 52002





000
SAUS44 KSHV 280457
MTRAQV
METAR KAQV 280456Z AUTO 00000KT 10SM CLR 18/17 A3001 RMK AO2 SLP160
T01830167





000
SAUS44 KSHV 280455
MTRBKB
METAR KBKB 280454Z AUTO 00000KT 10SM CLR 19/16 A2999 RMK AO2 SLP182
T01890156





000
SAUS44 KSHV 280357
MTRAQV
METAR KAQV 280356Z AUTO 00000KT 10SM CLR 20/17 A3001 RMK AO2 SLP159
T02000172





000
SAUS44 KSHV 280355
MTRBKB
METAR KBKB 280354Z AUTO 00000KT 10SM CLR 20/15 A3000 RMK AO2 SLP183
T02000150





000
SAUS44 KSHV 280257
MTRAQV
METAR KAQV 280256Z AUTO 00000KT 10SM CLR 21/17 A3001 RMK AO2 SLP160
T02110167 53010





000
SAUS44 KSHV 280255
MTRBKB
METAR KBKB 280254Z AUTO 00000KT 10SM CLR 21/16 A2999 RMK AO2 SLP182
T02110156 53012





000
SAUS44 KSHV 280157
MTRAQV
METAR KAQV 280156Z AUTO 00000KT 10SM CLR 23/17 A2999 RMK AO2 SLP154
T02280167





000
SAUS44 KSHV 280157
MTRAQV
METAR KAQV 280156Z AUTO 00000KT 10SM CLR 23/17 A2999 RMK AO2 SLP154
T02280167





000
SAUS44 KSHV 280155
MTRBKB
METAR KBKB 280154Z AUTO 00000KT 10SM CLR 22/16 A2997 RMK AO2 SLP175
T02220161





000
SAUS44 KSHV 280155
MTRBKB
METAR KBKB 280154Z AUTO 00000KT 10SM CLR 22/16 A2997 RMK AO2 SLP175
T02220161





000
SAUS44 KSHV 280057
MTRAQV
METAR KAQV 280056Z AUTO 00000KT 10SM CLR 25/17 A2998 RMK AO2 SLP148
T02500172





000
SAUS44 KSHV 280057
MTRAQV
METAR KAQV 280056Z AUTO 00000KT 10SM CLR 25/17 A2998 RMK AO2 SLP148
T02500172





000
SAUS44 KSHV 280055
MTRBKB
METAR KBKB 280054Z AUTO 00000KT 10SM CLR 26/16 A2996 RMK AO2 SLP171
T02560156





000
SAUS44 KSHV 280055
MTRBKB
METAR KBKB 280054Z AUTO 00000KT 10SM CLR 26/16 A2996 RMK AO2 SLP171
T02560156





000
SAUS44 KSHV 272357
MTRAQV
METAR KAQV 272356Z AUTO 01004KT 10SM CLR 29/15 A2998 RMK AO2 SLP149
T02940150 10333 20294 55006





000
SAUS44 KSHV 272357
MTRAQV
METAR KAQV 272356Z AUTO 01004KT 10SM CLR 29/15 A2998 RMK AO2 SLP149
T02940150 10333 20294 55006





000
SAUS44 KSHV 272355
MTRBKB
METAR KBKB 272354Z AUTO 00000KT 10SM CLR 30/14 A2996 RMK AO2 SLP170
T03000144 10333 20300 55004





000
SAUS44 KSHV 272355
MTRBKB
METAR KBKB 272354Z AUTO 00000KT 10SM CLR 30/14 A2996 RMK AO2 SLP170
T03000144 10333 20300 55004





000
SAUS44 KSHV 272257
MTRAQV
METAR KAQV 272256Z AUTO 02006KT 10SM CLR 32/14 A2997 RMK AO2 SLP146
T03170139





000
SAUS44 KSHV 272257
MTRAQV
METAR KAQV 272256Z AUTO 02006KT 10SM CLR 32/14 A2997 RMK AO2 SLP146
T03170139





000
SAUS44 KSHV 272255
MTRBKB
METAR KBKB 272254Z AUTO VRB03KT 10SM CLR 32/14 A2995 RMK AO2 SLP168
T03170144





000
SAUS44 KSHV 272157
MTRAQV
METAR KAQV 272156Z AUTO 35008G15KT 320V030 10SM CLR 32/14 A2998 RMK
AO2 SLP149 T03220139





000
SAUS44 KSHV 272155
MTRBKB
METAR KBKB 272154Z AUTO VRB03KT 10SM CLR 32/15 A2996 RMK AO2 SLP170
T03220150





000
SAUS44 KSHV 272057
MTRAQV
METAR KAQV 272056Z AUTO 02009KT 10SM CLR 32/14 A3000 RMK AO2 SLP155
T03170139 56020





000
SAUS44 KSHV 272057
MTRAQV
METAR KAQV 272056Z AUTO 02009KT 10SM CLR 32/14 A3000 RMK AO2 SLP155
T03170139 56020





000
SAUS44 KSHV 272055
MTRBKB
METAR KBKB 272054Z AUTO VRB05KT 10SM CLR 33/14 A2997 RMK AO2 SLP174
T03280144 56023 $





000
SAUS44 KSHV 272055
MTRBKB
METAR KBKB 272054Z AUTO VRB05KT 10SM CLR 33/14 A2997 RMK AO2 SLP174
T03280144 56023 $





000
SAUS44 KSHV 271957
MTRAQV
METAR KAQV 271956Z AUTO 34007KT 260V020 10SM CLR 32/15 A3001 RMK AO2
SLP157 T03220150





000
SAUS44 KSHV 271957
MTRAQV
METAR KAQV 271956Z AUTO 34007KT 260V020 10SM CLR 32/15 A3001 RMK AO2
SLP157 T03220150





000
SAUS44 KSHV 271955
MTRBKB
METAR KBKB 271954Z AUTO VRB06G14KT 10SM CLR 33/14 A2999 RMK AO2
SLP180 T03280144 $





000
SAUS44 KSHV 271857
MTRAQV
METAR KAQV 271856Z AUTO 36007KT 330V040 10SM CLR 32/14 A3003 RMK AO2
SLP166 T03170144





000
SAUS44 KSHV 271855
MTRBKB
METAR KBKB 271854Z AUTO VRB04KT 10SM FEW065 32/15 A3001 RMK AO2
SLP186 T03220150 $





000
SAUS44 KSHV 271855
MTRBKB
METAR KBKB 271854Z AUTO VRB04KT 10SM FEW065 32/15 A3001 RMK AO2
SLP186 T03220150 $





    US Dept of Commerce
    National Oceanic and Atmospheric Administration
    National Weather Service
    1325 East West Highway
    Silver Spring, MD 20910
    Page Author: NWS Internet Services Team
Disclaimer
Information Quality
Credits
Glossary
Privacy Policy
Freedom of Information Act (FOIA)
About Us
Career Opportunities